Date,TemperatureHighF,TemperatureAvgF,TemperatureLowF,DewpointHighF,DewpointAvgF,DewpointLowF,HumidityHigh,HumidityAvg,HumidityLow,PressureMaxIn,PressureMinIn,WindSpeedMaxMPH,WindSpeedAvgMPH,GustSpeedMaxMPH,PrecipitationSumIn
2013-1-1,73.4,67.9,60.6,65.4,62.5,57.0,90,83,75,30.25,30.10,0,0,0,0.02
2013-1-2,66.5,56.7,48.9,63.5,50.2,42.7,90,79,63,30.29,30.10,0,0,0,0.00
2013-1-3,49.2,44.4,37.4,44.7,40.1,-13.4,90,85,78,30.48,30.28,0,0,0,0.19
2013-1-4,56.8,45.2,35.7,38.8,34.1,29.2,82,66,43,30.54,30.44,0,0,0,0.00
2013-1-5,54.6,48.7,42.0,40.5,34.7,29.5,72,59,48,30.52,30.36,0,0,0,0.00
2013-1-6,56.8,51.4,48.0,43.7,40.0,35.6,78,65,56,30.41,30.29,0,0,0,0.00
2013-1-7,61.5,51.1,40.4,45.5,39.6,35.3,83,66,47,30.45,30.34,0,0,0,0.00
2013-1-8,64.5,57.2,19.7,57.4,49.7,8.2,81,76,67,30.41,30.30,0,0,0,0.00
2013-1-9,68.7,66.1,63.5,64.9,62.4,57.4,92,88,79,30.41,30.30,0,0,0,0.00
2013-1-10,67.8,65.7,63.1,65.5,63.3,60.7,93,92,91,30.41,30.28,0,0,0,0.73
2013-1-11,72.1,67.7,63.1,67.3,64.3,60.1,92,89,85,30.31,30.22,0,0,0,0.00
2013-1-12,71.7,66.8,65.1,66.6,64.2,63.0,93,91,84,30.27,30.15,0,0,0,0.00
2013-1-13,73.9,69.6,66.9,69.1,66.5,64.5,93,90,84,30.18,30.11,0,0,0,0.00
2013-1-14,75.0,70.6,68.3,70.5,67.3,65.7,93,90,83,30.24,30.18,0,0,0,0.00
2013-1-15,73.9,69.9,68.3,71.4,67.1,65.3,92,91,85,30.20,30.09,0,0,0,0.02
2013-1-16,71.2,63.5,51.9,67.8,60.5,48.8,92,90,87,30.14,30.07,0,0,0,0.24
2013-1-17,52.7,45.5,41.3,49.8,39.9,34.7,90,81,70,30.42,30.14,0,0,0,0.00
2013-1-18,58.8,46.1,37.9,39.7,35.1,31.7,85,67,43,30.63,30.41,0,0,0,0.00
2013-1-19,63.5,51.2,40.6,46.6,39.4,31.1,80,64,54,30.54,30.37,0,0,0,0.00
2013-1-20,67.8,52.6,43.8,48.0,42.7,38.5,82,71,49,30.38,30.28,0,0,0,0.00
2013-1-21,69.4,54.7,42.4,53.6,43.3,37.3,86,68,43,30.33,30.23,0,0,0,0.00
2013-1-22,61.3,49.9,39.9,39.7,33.9,27.7,72,55,36,30.49,30.32,0,0,0,0.00
2013-1-23,62.9,50.5,37.9,50.1,39.3,29.7,79,66,53,30.55,30.44,0,0,0,0.00
2013-1-24,76.2,60.0,46.5,59.9,51.9,42.5,88,75,57,30.47,30.37,0,0,0,0.00
2013-1-25,68.5,58.6,47.3,59.5,52.7,43.1,89,81,71,30.41,30.32,0,0,0,0.00
2013-1-26,78.6,63.8,55.9,65.2,57.4,51.8,90,80,64,30.39,30.33,0,0,0,0.00
2013-1-27,67.8,60.8,53.7,59.4,54.8,50.5,89,81,68,30.46,30.39,0,0,0,0.00
2013-1-28,68.5,65.2,62.9,62.7,60.8,59.3,90,86,81,30.41,30.32,0,0,0,0.00
2013-1-29,75.7,69.0,65.8,68.4,65.4,62.5,91,88,78,30.32,30.06,0,0,0,0.00
2013-1-30,75.3,65.0,46.2,70.3,60.4,36.8,91,85,70,30.23,29.80,0,0,0,0.10
2013-1-31,60.9,47.4,36.6,38.8,33.3,0.0,79,60,36,30.45,30.23,0,0,0,0.00
2013-2-1,65.1,50.4,41.0,42.7,36.0,24.7,78,59,39,30.52,30.42,0,0,0,0.00
2013-2-2,61.5,49.6,36.1,48.8,35.4,19.7,80,58,49,30.51,30.30,0,0,0,0.00
2013-2-3,73.2,56.6,46.9,49.0,43.9,-35.8,85,65,37,30.39,30.25,0,0,0,0.00
2013-2-4,63.3,55.7,44.6,54.2,45.0,0.0,80,68,56,30.26,30.12,0,0,0,0.00
2013-2-5,67.6,60.5,55.0,60.3,55.7,51.2,90,84,68,30.17,30.08,0,0,0,0.24
2013-2-6,68.7,60.9,55.7,60.2,56.2,52.3,92,85,73,30.29,30.15,0,0,0,0.00
2013-2-7,72.3,62.9,59.0,65.1,59.8,56.1,93,90,75,30.18,29.91,0,0,0,0.85
2013-2-8,56.1,56.1,56.1,53.2,53.2,53.2,90,90,90,30.18,30.18,0,0,0,0.00
2013-2-11,79.1,65.2,56.1,72.3,61.2,26.3,91,87,74,30.24,30.16,0,0,0,0.85
2013-2-12,68.9,64.0,57.3,66.5,60.7,23.7,92,89,82,30.18,29.92,0,0,0,0.85
2013-2-13,68.1,58.8,48.2,65.7,53.2,36.8,92,82,40,30.20,29.92,0,0,0,11.81
2013-2-14,57.0,46.6,39.0,45.4,40.5,34.7,88,80,62,30.28,30.15,0,0,0,0.85
2013-2-15,65.4,50.3,35.4,48.1,40.8,32.2,90,72,49,30.30,30.16,0,0,0,0.85
2013-2-16,60.9,48.9,35.7,43.2,32.7,19.5,78,55,34,30.42,30.17,0,0,0,0.85
2013-2-17,53.9,40.7,28.2,31.8,25.3,17.7,75,55,36,30.54,30.41,0,0,0,0.85
2013-2-18,64.5,55.4,35.2,52.8,43.0,28.3,80,64,49,30.46,30.22,0,0,0,6.73
2013-2-19,72.5,61.6,41.5,62.0,50.0,-23.5,88,67,46,30.33,30.15,0,0,0,0.85
2013-2-20,68.0,46.8,38.4,54.1,30.4,25.9,75,54,34,30.39,30.22,0,0,0,0.00
2013-2-21,64.7,55.4,40.1,61.2,45.1,30.4,90,69,49,30.25,30.06,0,0,0,0.85
2013-2-22,68.3,65.9,64.2,66.0,63.4,60.9,93,92,90,30.12,30.02,0,0,0,0.85
2013-2-23,67.8,63.3,57.3,65.7,60.9,54.7,93,92,90,30.08,29.91,0,0,0,0.85
2013-2-24,66.0,60.0,52.8,58.0,55.2,50.0,91,84,74,30.13,29.97,0,0,0,1.35
2013-2-25,66.2,61.7,58.6,62.1,59.0,27.1,93,91,81,30.01,29.68,0,0,0,2.35
2013-2-26,66.0,58.2,51.6,63.9,51.1,44.2,93,78,62,30.04,29.66,0,0,0,0.85
2013-2-27,64.0,54.1,45.3,49.0,45.1,-28.4,86,72,55,30.17,30.04,0,0,0,0.85
2013-2-28,65.3,53.5,44.4,45.5,40.2,35.2,84,63,44,30.21,30.09,0,0,0,0.85
2013-3-1,58.1,47.9,-15.1,40.5,35.3,-24.3,71,62,49,30.26,30.13,0,0,0,0.85
2013-3-2,55.2,42.6,30.7,34.2,28.9,24.4,81,59,43,30.31,30.18,0,0,0,0.85
2013-3-3,55.7,43.3,34.8,32.2,27.1,23.4,67,54,39,30.34,30.23,0,0,0,0.85
2013-3-4,63.6,51.9,33.6,56.5,41.9,26.8,83,70,53,30.35,30.15,0,0,0,0.85
2013-3-5,78.0,64.2,48.3,64.4,56.1,38.9,87,75,62,30.26,30.07,0,0,0,0.85
2013-3-6,63.6,50.1,39.9,38.7,32.6,27.4,76,53,34,30.40,30.25,0,0,0,0.85
2013-3-7,65.8,48.8,33.8,43.8,35.2,25.4,79,61,39,30.47,30.33,0,0,0,0.85
2013-3-8,69.2,54.1,40.8,47.8,41.2,0.0,80,63,43,30.44,30.31,0,0,0,0.85
2013-3-9,66.0,57.2,44.4,56.7,48.7,39.2,86,74,60,30.37,30.22,0,0,0,0.85
2013-3-10,69.0,63.4,22.6,60.3,57.0,12.8,88,80,73,30.26,30.12,0,0,0,0.85
2013-3-11,70.3,60.2,47.8,63.8,56.4,42.7,91,87,80,30.12,29.94,0,0,0,0.85
2013-3-12,66.7,52.6,42.0,43.7,39.6,35.5,85,64,40,30.31,30.07,0,0,0,0.85
2013-3-13,71.6,54.2,40.1,45.7,35.3,23.8,77,52,29,30.46,30.30,0,0,0,0.85
2013-3-14,65.3,50.9,39.0,35.9,29.4,24.1,67,45,27,30.55,30.40,0,0,0,0.85
2013-3-15,73.5,52.6,39.5,53.2,42.3,33.1,81,69,47,30.45,30.30,0,0,0,0.85
2013-3-16,79.1,65.6,54.1,62.1,56.4,49.4,85,73,54,30.30,30.15,0,0,0,0.85
2013-3-17,70.1,61.3,53.4,65.0,57.3,49.3,90,87,83,30.17,30.07,0,0,0,0.85
2013-3-18,73.5,68.1,63.8,66.5,63.8,60.5,91,86,78,30.08,29.95,0,0,0,0.85
2013-3-19,74.8,66.0,57.7,64.6,58.1,50.9,89,76,59,30.17,30.00,0,0,0,0.85
2013-3-20,66.2,59.0,43.3,52.6,38.8,28.9,82,48,35,30.20,30.08,0,0,0,0.85
2013-3-21,68.7,56.0,41.9,38.2,31.7,17.0,67,43,25,30.20,30.05,0,0,0,0.85
2013-3-22,65.4,57.9,49.8,52.0,43.8,34.9,67,60,45,30.10,30.03,0,0,0,0.85
2013-3-23,67.6,64.6,61.8,64.6,58.4,48.0,90,81,57,30.04,29.82,0,0,0,0.85
2013-3-24,79.7,72.6,52.5,69.9,65.8,37.2,92,80,54,30.02,29.73,0,0,0,0.85
2013-3-25,64.5,51.7,40.2,38.1,31.4,24.0,66,48,30,30.33,30.02,0,0,0,0.85
2013-3-26,60.0,48.5,34.8,40.2,29.4,17.6,64,49,34,30.46,30.33,0,0,0,0.85
2013-3-27,64.9,47.8,32.1,38.0,30.4,19.4,72,52,35,30.55,30.41,0,0,0,0.85
2013-3-28,67.4,52.1,36.8,43.0,37.3,30.6,80,60,37,30.48,30.39,0,0,0,0.85
2013-3-29,72.6,57.3,41.7,50.8,43.6,35.4,80,62,34,30.47,30.36,0,0,0,0.85
2013-3-30,78.0,63.5,48.5,64.6,54.9,43.9,86,75,52,30.37,30.21,0,0,0,0.85
2013-3-31,80.9,69.7,59.0,68.7,62.3,54.8,87,78,64,30.21,30.05,0,0,0,0.85
2013-4-1,82.7,70.3,56.3,64.4,58.1,47.0,88,67,45,30.16,30.05,0,0,0,0.85
2013-4-2,76.6,64.5,51.6,56.5,52.0,45.3,86,65,44,30.27,30.16,0,0,0,0.85
2013-4-3,63.1,60.0,55.0,58.2,55.4,52.1,92,85,73,30.20,29.92,0,0,0,0.85
2013-4-4,74.8,65.4,59.5,67.1,60.2,56.2,91,84,72,30.08,29.99,0,0,0,0.00
2013-4-5,63.3,57.8,48.0,57.8,50.0,42.4,87,76,62,30.23,30.02,0,0,0,0.00
2013-4-6,71.2,59.4,46.2,57.8,49.6,42.0,87,71,55,30.32,30.21,0,0,0,0.85
2013-4-7,71.7,63.3,51.4,64.1,57.5,45.8,89,82,71,30.30,30.17,0,0,0,0.85
2013-4-8,75.7,69.1,64.0,66.7,63.9,60.5,91,84,71,30.26,30.14,22,0,22,0.00
2013-4-9,75.9,70.4,66.9,66.6,64.4,62.9,91,82,68,30.27,30.13,0,0,0,0.85
2013-4-10,77.5,70.6,66.7,68.5,65.1,-17.6,89,83,74,30.21,30.05,0,0,0,0.85
2013-4-11,78.6,72.0,67.1,72.3,68.4,64.2,93,89,79,30.05,29.77,57,0,57,1.24
2013-4-12,77.7,65.6,55.2,64.2,53.9,46.3,91,69,41,30.11,29.88,0,0,0,0.85
2013-4-13,75.7,65.1,50.1,57.6,50.7,42.2,77,61,40,30.19,30.03,0,0,0,0.85
2013-4-14,68.1,64.6,61.1,61.7,57.8,55.1,90,79,72,30.08,29.95,0,0,0,0.29
2013-4-15,74.8,70.2,62.2,67.5,65.4,59.6,92,85,78,30.19,29.22,0,0,0,0.20
2013-4-16,77.3,71.6,65.4,68.4,66.1,62.4,90,83,73,30.28,30.17,0,0,0,0.20
2013-4-17,78.4,72.2,67.2,69.7,66.8,64.2,92,83,73,30.29,30.16,0,0,0,0.69
2013-4-18,77.1,72.3,67.8,70.0,67.4,63.5,91,85,78,30.16,30.03,0,0,0,0.20
2013-4-19,75.5,62.5,51.2,72.2,58.7,48.1,92,87,78,30.29,29.97,0,0,0,0.22
2013-4-20,68.0,56.3,44.6,48.1,42.7,38.3,89,63,41,30.37,30.25,0,0,0,0.20
2013-4-21,72.3,60.3,14.1,53.7,47.4,7.3,79,64,50,30.34,30.25,0,0,0,0.20
2013-4-22,72.3,66.2,60.9,61.6,56.1,45.5,81,70,55,30.29,30.20,0,0,0,0.20
2013-4-23,73.7,68.6,63.3,62.5,60.6,57.4,85,76,63,30.28,30.19,0,0,0,0.20
2013-4-24,77.0,69.3,58.8,68.6,64.5,55.0,91,85,72,30.28,30.17,0,0,0,0.20
2013-4-25,82.9,69.7,61.3,66.8,60.0,43.6,92,73,47,30.40,30.25,0,0,0,0.20
2013-4-26,79.1,68.0,57.5,55.7,48.0,32.3,76,50,32,30.44,30.35,0,0,0,0.20
2013-4-27,60.4,58.9,58.8,54.7,53.7,52.6,83,83,77,30.36,30.31,0,0,0,0.00
2013-4-28,58.8,58.8,58.8,53.7,53.7,53.7,83,83,83,30.31,30.31,0,0,0,0.00
2013-4-29,78.4,63.1,58.8,68.3,57.3,53.7,86,82,71,30.31,29.91,0,0,0,9.83
2013-4-30,78.6,72.3,65.4,69.9,66.5,61.4,90,82,72,30.13,30.05,0,0,0,0.00
2013-5-1,73.2,71.2,68.7,68.5,65.8,64.0,89,83,76,30.12,30.01,0,0,0,0.00
2013-5-2,77.7,70.1,66.0,66.9,63.5,46.1,89,80,68,30.14,30.03,0,0,0,0.00
2013-5-3,72.6,67.4,57.3,64.3,62.4,53.2,91,84,73,30.07,29.94,0,0,0,2.55
2013-5-4,70.3,57.6,47.4,53.2,45.4,40.0,91,67,41,30.07,29.97,0,0,0,0.24
2013-5-5,77.0,60.8,46.7,63.1,48.0,39.7,85,64,43,30.12,29.94,0,0,0,0.00
2013-5-6,75.7,63.0,47.8,55.1,49.3,39.8,79,62,44,30.16,30.05,0,0,0,0.00
2013-5-7,79.1,67.1,55.5,62.3,56.7,49.5,84,70,53,30.18,30.07,0,0,0,0.00
2013-5-8,80.4,69.3,57.0,67.6,61.9,52.7,89,78,63,30.26,30.14,0,0,0,0.00
2013-5-9,82.7,72.2,30.3,70.8,64.2,-16.2,89,77,61,30.30,30.19,0,0,0,0.00
2013-5-10,79.5,73.1,69.9,71.1,66.6,64.2,85,80,70,30.28,30.07,0,0,0,0.00
2013-5-11,76.1,69.2,62.4,67.6,64.2,28.9,89,84,74,30.20,30.08,0,0,0,0.00
2013-5-12,82.9,72.7,64.9,63.7,59.7,29.8,90,66,39,30.23,30.11,0,0,0,0.00
2013-5-13,80.4,67.4,53.4,53.7,47.4,43.9,72,51,32,30.39,30.23,0,0,0,0.00
2013-5-14,78.6,67.9,53.7,58.4,53.4,46.3,77,61,47,30.43,30.30,0,0,0,0.00
2013-5-15,84.5,72.0,57.0,65.9,58.3,22.0,85,64,41,30.36,30.19,0,0,0,0.00
2013-5-16,80.2,74.2,69.6,70.4,67.3,62.2,86,79,69,30.23,30.14,0,0,0,0.00
2013-5-17,82.0,75.7,71.4,71.7,69.6,34.4,88,82,71,30.23,30.12,0,0,0,0.00
2013-5-18,84.0,77.3,72.1,74.1,70.5,68.2,89,80,66,30.25,30.16,0,0,0,0.00
2013-5-19,85.1,78.1,72.6,74.7,71.1,68.2,88,79,68,30.21,30.13,0,0,0,0.00
2013-5-20,84.9,78.7,73.9,75.1,71.5,69.4,88,79,69,30.21,30.10,0,0,0,0.00
2013-5-21,85.6,78.9,73.9,73.4,70.5,68.8,86,76,65,30.16,30.04,0,0,0,0.00
2013-5-22,88.8,78.4,68.1,75.2,70.3,64.3,89,77,63,30.15,30.02,0,0,0,0.00
2013-5-23,92.8,80.4,69.2,74.1,69.8,64.8,88,71,43,30.17,30.07,0,0,0,0.00
2013-5-24,93.0,80.8,69.6,70.1,63.9,52.7,88,59,37,30.29,30.14,61,0,61,0.00
2013-5-25,84.5,73.8,61.3,61.4,54.9,47.5,74,53,40,30.37,30.27,0,0,0,0.00
2013-5-26,64.7,64.2,64.0,55.9,55.7,55.4,75,74,73,30.31,30.28,0,0,0,0.00
2013-5-29,82.9,78.7,77.1,72.7,71.4,70.1,83,78,70,32.01,30.16,0,0,0,0.00
2013-5-30,85.2,80.4,77.0,74.3,72.0,70.3,84,76,66,30.23,30.15,0,0,0,0.00
2013-5-31,84.3,79.7,77.1,73.9,72.1,71.0,83,78,70,30.23,30.13,0,0,0,0.00
2013-6-1,84.9,80.0,77.0,75.2,73.2,71.2,86,80,71,30.18,30.09,0,0,0,0.00
2013-6-2,85.8,79.9,72.3,75.3,72.7,68.6,89,79,69,30.12,29.99,0,0,0,0.00
2013-6-3,88.5,81.7,75.3,77.5,74.1,70.3,87,78,68,30.07,29.98,0,0,0,0.00
2013-6-4,87.6,81.3,73.7,77.0,74.1,69.6,89,79,70,30.10,30.03,0,0,0,0.00
2013-6-5,86.9,81.3,75.3,76.2,73.4,49.2,88,77,65,30.10,30.00,0,0,0,0.00
2013-6-6,85.8,78.4,69.9,73.2,69.9,66.0,90,76,61,30.05,29.83,0,0,0,0.00
2013-6-7,86.7,79.0,70.7,74.3,70.6,65.6,88,76,63,30.04,29.87,0,0,0,0.00
2013-6-8,87.6,80.4,71.2,75.9,72.5,38.0,88,77,25,30.19,30.02,0,0,0,0.00
2013-6-9,77.5,73.1,69.6,72.8,69.9,66.9,92,90,83,30.23,30.09,0,0,0,1.55
2013-6-10,79.7,77.0,72.3,75.6,72.6,68.6,90,86,81,30.25,30.12,0,0,0,0.24
2013-6-11,89.7,82.0,75.5,79.6,75.7,72.4,91,82,72,30.24,30.15,0,0,0,0.00
2013-6-12,93.0,83.7,74.6,81.2,76.6,71.2,90,80,68,30.23,30.13,0,0,0,0.00
2013-6-13,93.2,84.5,76.6,80.7,76.3,50.7,88,77,65,30.17,30.00,0,0,0,0.00
2013-6-14,94.6,85.9,79.8,78.9,75.2,67.9,86,72,49,30.07,29.96,0,0,0,0.00
2013-6-15,87.2,81.5,73.7,77.7,72.9,64.9,85,75,67,30.17,30.05,0,0,0,0.00
2013-6-16,89.4,83.8,80.4,79.2,76.6,74.4,87,79,70,30.20,30.13,0,0,0,0.00
2013-6-17,91.0,84.3,77.0,78.3,75.6,33.8,86,76,18,30.17,30.10,22,0,22,0.00
2013-6-18,89.9,83.1,74.8,79.1,74.5,69.5,86,76,64,30.17,30.04,0,0,0,0.49
2013-6-19,91.4,79.4,71.7,78.4,72.7,68.3,90,81,64,30.19,30.06,0,0,0,1.37
2013-6-20,88.1,79.4,72.6,77.0,72.6,68.8,90,80,68,30.24,30.13,0,0,0,0.35
2013-6-21,86.7,79.6,72.1,75.8,72.3,68.7,90,79,68,30.26,30.17,0,0,0,0.00
2013-6-22,87.2,80.0,71.9,75.2,72.2,34.3,89,78,64,30.26,30.14,0,0,0,0.00
2013-6-23,87.4,79.8,73.9,76.9,73.3,47.8,91,81,67,30.26,30.16,0,0,0,0.20
2013-6-24,89.7,84.3,78.6,77.3,74.4,71.9,81,73,65,30.31,30.21,22,0,22,0.00
2013-6-25,88.3,81.8,73.9,77.8,73.9,-13.0,89,77,67,30.28,30.16,0,0,0,0.00
2013-6-26,91.0,85.0,75.7,77.2,74.2,69.7,83,70,61,30.22,30.11,0,0,0,16.82
2013-6-27,93.9,86.4,79.1,79.8,76.4,72.0,81,73,60,30.15,30.04,0,0,0,0.00
2013-6-28,94.1,85.5,75.3,81.4,77.3,68.4,87,77,59,30.06,29.90,0,0,0,0.19
2013-6-29,88.5,81.4,74.8,79.3,74.7,69.7,87,80,70,29.93,29.82,0,0,0,0.02
2013-6-30,86.5,78.1,71.4,75.3,71.5,45.8,87,80,40,29.92,29.83,0,0,0,0.00
2013-7-1,84.7,76.4,71.2,76.5,72.1,67.0,90,87,77,29.95,29.89,0,0,0,0.00
2013-7-2,80.8,80.8,80.8,75.8,75.8,75.8,85,85,85,0.00,40.00,0,0,0,0.00
2013-7-3,80.8,77.6,77.5,75.8,73.0,73.0,86,86,85,35.49,35.49,0,0,0,0.00
2013-7-4,77.5,77.5,77.5,73.0,73.0,73.0,86,86,86,35.49,35.49,0,0,0,0.00
2013-7-5,77.5,77.5,77.5,73.0,73.0,73.0,86,86,86,0.00,40.00,0,0,0,0.00
2013-7-6,77.5,77.5,77.5,73.0,73.0,73.0,86,86,86,0.00,40.00,0,0,0,0.00
2013-7-7,77.5,77.5,77.5,73.0,73.0,73.0,86,86,86,0.00,40.00,0,0,0,0.00
2013-7-8,77.5,77.5,77.5,73.0,73.0,73.0,86,86,86,0.00,40.00,0,0,0,0.00
2013-7-9,77.5,77.5,77.5,73.0,73.0,73.0,86,86,86,0.00,40.00,0,0,0,0.00
2013-7-10,77.5,77.5,77.5,73.0,73.0,73.0,86,86,86,0.00,40.00,0,0,0,0.00
2013-7-11,77.5,77.5,77.5,73.0,73.0,73.0,86,86,86,0.00,40.00,0,0,0,0.00
2013-7-12,77.5,77.5,77.5,73.0,73.0,73.0,86,86,86,0.00,40.00,0,0,0,0.00
2013-7-13,77.5,77.5,77.5,73.0,73.0,73.0,86,86,86,0.00,40.00,0,0,0,0.00
2013-7-14,77.5,77.5,77.5,73.0,73.0,73.0,86,86,86,0.00,40.00,0,0,0,0.00
2013-7-15,77.5,77.5,77.5,73.0,73.0,73.0,86,86,86,0.00,40.00,0,0,0,0.00
2013-7-16,77.5,77.5,77.5,73.0,73.0,73.0,86,86,86,0.00,40.00,0,0,0,0.00
2013-7-17,77.5,77.5,77.5,73.0,73.0,73.0,86,86,86,0.00,40.00,0,0,0,0.00
2013-7-18,77.5,77.5,77.5,73.0,73.0,73.0,86,86,86,0.00,40.00,0,0,0,0.00
2013-7-19,77.5,77.5,77.5,73.0,73.0,73.0,86,86,86,0.00,40.00,0,0,0,0.00
2013-7-20,77.5,77.5,77.5,73.0,73.0,73.0,86,86,86,0.00,40.00,0,0,0,0.00
2013-7-21,77.5,77.5,77.5,73.0,73.0,73.0,86,86,86,0.00,40.00,0,0,0,0.00
2013-7-22,77.5,77.5,77.5,73.0,73.0,73.0,86,86,86,0.00,40.00,0,0,0,0.00
2013-8-12,82.0,82.0,82.0,72.9,72.9,72.9,74,74,74,37.67,30.00,0,0,0,0.00
2013-8-13,82.0,82.0,82.0,72.9,72.9,72.9,74,74,74,37.67,37.67,0,0,0,0.00
2013-8-14,82.0,82.0,82.0,72.9,72.9,72.9,74,74,74,0.00,40.00,0,0,0,0.00
2013-8-15,82.0,82.0,82.0,72.9,72.9,72.9,74,74,74,0.00,40.00,0,0,0,0.00
2013-8-16,82.0,82.0,82.0,72.9,72.9,72.9,74,74,74,0.00,40.00,0,0,0,0.00
2013-8-17,82.0,82.0,82.0,72.9,72.9,72.9,74,74,74,0.00,40.00,0,0,0,0.00
2013-8-18,82.0,82.0,82.0,72.9,72.9,72.9,74,74,74,0.00,40.00,0,0,0,0.00
2013-8-19,82.0,82.0,82.0,72.9,72.9,72.9,74,74,74,0.00,40.00,0,0,0,0.00
2013-8-20,82.0,82.0,82.0,72.9,72.9,72.9,74,74,74,0.00,40.00,0,0,0,0.00
2013-8-21,82.0,82.0,82.0,72.9,72.9,72.9,74,74,74,0.00,40.00,0,0,0,0.00
2013-8-22,84.0,81.2,76.6,76.0,73.2,70.9,83,77,74,30.17,29.98,0,0,0,77.62
2013-8-23,80.4,75.4,73.0,75.6,71.9,54.0,93,89,48,30.18,30.07,0,0,0,78.00
2013-8-24,82.4,76.3,73.2,76.9,72.7,69.6,93,89,82,30.27,30.13,22,0,22,0.02
2013-8-25,84.3,77.8,73.2,75.5,72.6,69.8,92,84,72,30.34,30.23,0,0,0,0.02
2013-8-26,86.1,78.4,71.2,71.4,68.0,33.2,87,71,53,30.34,30.22,0,0,0,0.00
2013-8-27,87.8,77.8,68.5,73.6,67.4,62.5,84,71,56,30.25,30.15,0,0,0,0.00
2013-8-28,89.4,80.0,70.8,75.6,70.1,65.6,85,73,62,30.21,30.13,0,0,0,0.00
2013-8-29,91.7,81.6,71.2,76.1,70.9,66.0,86,71,58,30.20,30.09,0,0,0,0.00
2013-8-30,95.0,85.9,75.3,77.7,74.0,69.1,82,68,54,30.16,30.03,0,0,0,0.00
2013-8-31,90.3,79.1,74.4,80.1,73.5,70.9,90,83,68,30.10,29.99,0,0,0,0.00
2013-9-1,91.5,81.0,72.6,80.5,75.0,69.8,91,83,69,30.08,30.00,0,0,0,0.00
2013-9-3,86.4,86.4,84.4,80.1,79.8,79.8,87,81,81,41.50,29.94,0,0,0,0.00
2013-9-4,86.4,86.4,86.4,79.8,79.8,79.8,81,81,81,0.00,40.00,0,0,0,0.00
2013-9-5,86.4,86.4,86.4,79.8,79.8,79.8,81,81,81,0.00,40.00,0,0,0,0.00
2013-9-6,86.4,86.4,86.4,79.8,79.8,79.8,81,81,81,0.00,40.00,0,0,0,0.00
2013-9-7,87.1,86.8,86.4,79.8,75.7,73.0,81,70,63,30.00,30.00,0,0,0,0.00
2013-9-8,87.1,87.1,87.1,73.0,73.0,73.0,63,63,63,41.50,40.00,0,0,0,0.00
2013-9-9,87.1,87.1,87.1,73.0,73.0,73.0,63,63,63,0.00,40.00,0,0,0,0.00
2013-9-10,87.1,87.1,87.1,73.0,73.0,73.0,63,63,63,0.00,40.00,0,0,0,0.00
2013-9-11,87.1,87.1,87.1,73.0,73.0,73.0,63,63,63,0.00,40.00,0,0,0,0.00
2013-9-12,87.1,87.1,87.1,73.0,73.0,73.0,63,63,63,0.00,40.00,0,0,0,0.00
2013-9-13,87.1,87.1,87.1,73.0,73.0,73.0,63,63,63,0.00,40.00,0,0,0,0.00
2013-9-14,87.1,87.1,87.1,73.0,73.0,73.0,63,63,63,0.00,40.00,0,0,0,0.00
2013-9-15,87.1,87.1,87.1,73.0,73.0,73.0,63,63,63,0.00,40.00,0,0,0,0.00
2013-9-16,87.1,87.1,87.1,73.0,73.0,73.0,63,63,63,0.00,40.00,0,0,0,0.00
2013-9-17,87.1,87.1,87.1,73.0,73.0,73.0,63,63,63,0.00,40.00,0,0,0,0.00
2013-9-18,87.1,87.1,87.1,73.0,73.0,73.0,63,63,63,0.00,40.00,0,0,0,0.00
2013-9-19,87.1,85.8,84.4,73.0,72.9,72.7,68,65,63,30.02,30.02,0,0,0,0.00
2013-9-20,84.4,84.4,84.4,72.7,72.7,72.7,68,68,68,41.50,40.00,0,0,0,0.00
2013-9-21,84.4,84.4,84.4,72.7,72.7,72.7,68,68,68,0.00,40.00,0,0,0,0.00
2013-9-22,84.4,84.4,84.4,72.7,72.7,72.7,68,68,68,0.00,40.00,0,0,0,0.00
2013-9-23,72.5,72.5,72.5,69.7,69.7,69.7,91,91,91,0.00,40.00,0,0,0,0.00
2013-9-24,72.5,72.5,72.5,69.7,69.7,69.7,91,91,91,0.00,40.00,0,0,0,0.00
2013-9-26,77.2,77.2,77.2,73.7,73.7,73.7,100,100,100,29.83,29.83,114,38,114,0.00
2013-10-3,84.3,80.2,70.4,76.4,74.5,68.9,95,83,75,30.07,29.98,6,4,14,0.00
2013-10-4,85.1,80.5,73.8,77.8,74.9,70.7,93,84,67,30.07,29.99,6,3,14,0.00
2013-10-5,84.8,79.9,74.0,78.0,75.1,72.7,98,86,71,30.04,29.94,12,4,16,0.00
2013-10-6,82.8,76.9,71.7,75.7,73.1,71.0,98,89,75,29.94,29.78,12,3,15,1.79
2013-10-7,81.9,69.4,61.6,71.2,61.9,55.0,99,79,46,29.95,29.79,13,3,15,0.00
2013-10-8,85.0,69.8,55.7,69.0,60.5,53.0,90,74,48,29.98,29.91,8,2,10,0.00
2013-10-9,80.8,71.4,64.6,69.0,66.0,63.0,94,83,65,30.09,29.98,11,3,15,0.00
2013-10-10,80.2,70.4,61.8,69.0,65.5,61.0,98,85,66,30.10,30.00,7,2,14,0.00
2013-10-11,83.8,73.5,64.0,71.0,67.1,64.0,99,82,58,30.06,29.96,5,1,11,0.00
2013-10-12,88.6,74.9,65.3,72.0,67.5,62.0,99,80,44,30.07,29.98,5,1,9,0.00
2013-10-13,86.7,75.0,65.2,68.0,63.7,58.0,98,71,39,30.14,30.04,12,2,14,0.00
2013-10-14,82.7,73.8,65.6,70.0,64.9,60.0,85,74,57,30.10,30.00,9,3,12,0.00
2013-10-15,78.1,70.5,62.6,68.0,64.8,61.0,95,83,68,30.06,29.96,8,3,12,0.00
2013-10-16,79.9,72.2,62.9,70.0,66.4,62.0,96,82,68,30.02,29.92,8,2,11,0.00
2013-10-17,83.1,77.4,70.1,77.0,71.8,69.0,97,83,70,29.96,29.87,5,1,9,0.11
2013-10-18,78.8,70.9,66.3,70.0,66.7,64.0,96,87,71,30.00,29.90,6,2,11,0.00
2013-10-19,74.6,68.6,64.9,67.0,64.4,58.0,95,86,73,29.98,29.89,8,2,14,0.01
2013-10-20,78.3,66.3,58.0,63.0,58.8,57.0,96,78,50,30.02,29.94,10,2,14,0.00
2013-10-21,73.1,66.5,62.3,65.0,60.7,56.0,91,81,72,30.04,29.95,5,2,10,0.00
2013-10-22,78.0,67.5,61.8,67.0,63.9,59.0,98,89,62,29.97,29.86,4,1,8,0.12
2013-10-23,75.2,63.7,54.5,58.0,49.8,41.0,94,64,33,30.10,29.92,11,2,15,0.00
2013-10-24,73.0,60.8,49.9,56.0,48.7,42.0,90,66,41,30.21,30.09,8,2,11,0.00
2013-10-25,70.4,58.9,49.4,55.0,45.0,36.0,94,63,33,30.34,30.17,13,3,19,0.00
2013-10-26,67.6,55.3,44.2,49.0,40.5,34.0,89,60,34,30.29,30.15,8,2,10,0.00
2013-10-27,72.6,60.7,47.3,58.0,50.8,43.0,92,72,46,30.17,30.08,7,2,10,0.00
2013-10-28,76.2,66.5,58.2,61.0,56.8,52.0,94,72,50,30.21,30.09,10,2,14,0.00
2013-10-29,77.4,66.5,57.1,68.0,60.9,56.0,96,83,56,30.26,30.17,8,2,12,0.00
2013-10-30,78.3,70.7,62.1,71.0,66.5,60.0,96,87,78,30.22,30.09,9,3,15,0.00
2013-10-31,81.7,77.2,73.9,74.0,71.6,68.0,88,83,74,30.08,29.88,14,5,19,0.00
2013-11-1,77.5,72.3,63.3,75.0,70.5,63.0,99,94,87,29.88,29.78,8,2,12,0.25
2013-11-2,79.9,64.6,53.6,62.0,53.1,45.0,98,70,38,30.08,29.86,5,1,11,0.01
2013-11-3,70.4,57.6,47.2,47.0,43.5,40.0,84,62,35,30.20,30.08,10,3,17,0.00
2013-11-4,73.5,62.9,52.3,58.0,51.0,42.0,81,66,52,30.27,30.17,12,4,17,0.00
2013-11-5,77.2,66.2,56.2,62.0,54.2,47.0,74,66,53,30.27,30.15,11,4,18,0.00
2013-11-6,74.4,66.7,60.0,67.0,61.8,53.0,95,84,72,30.16,30.06,9,2,14,0.00
2013-11-7,69.8,61.9,50.4,68.0,57.7,41.0,97,86,69,30.19,30.02,10,2,18,0.08
2013-11-8,66.5,54.4,45.7,43.0,38.0,34.0,68,56,34,30.26,30.15,14,5,26,0.00
2013-11-9,70.5,59.7,49.3,61.0,51.5,39.0,91,75,61,30.23,30.15,9,3,13,0.00
2013-11-10,77.4,64.2,55.5,62.0,56.3,51.0,90,76,51,30.23,30.14,12,3,13,0.00
2013-11-11,72.4,60.1,51.9,53.0,49.2,44.0,90,70,38,30.21,30.12,7,2,11,0.00
2013-11-12,74.7,59.3,42.7,51.0,45.1,25.0,90,61,40,30.36,30.12,13,4,24,0.00
2013-11-13,56.0,44.4,35.5,27.0,23.3,21.0,57,45,27,30.46,30.35,17,5,22,0.00
2013-11-14,64.1,50.7,35.5,52.0,38.3,22.0,87,63,48,30.40,30.17,8,3,13,0.00
2013-11-15,71.4,63.4,57.0,66.0,59.3,49.0,92,86,71,30.16,30.00,11,4,19,0.00
2013-11-16,71.1,66.7,61.3,67.0,63.9,60.0,97,91,80,30.10,30.00,10,4,14,0.00
2013-11-17,78.2,72.3,67.8,74.0,70.8,67.0,99,95,87,30.00,29.93,11,3,18,0.02
2013-11-18,73.6,69.1,59.8,73.0,65.5,41.0,99,90,49,30.02,29.92,6,2,15,3.95
2013-11-19,68.3,57.2,49.5,48.0,42.2,39.0,72,59,38,30.09,29.98,15,3,19,0.00
2013-11-20,68.3,58.9,49.6,58.0,51.1,42.0,86,75,64,30.16,30.02,8,3,12,0.00
2013-11-21,67.5,62.1,56.0,63.0,57.6,52.0,90,85,78,30.23,30.15,10,3,13,0.00
2013-11-22,69.3,66.6,64.6,66.0,64.2,62.0,98,92,86,30.23,30.11,7,2,13,0.00
2013-11-23,72.7,64.4,53.9,66.0,60.4,43.0,98,87,67,30.20,30.10,10,2,17,0.00
2013-11-24,57.4,50.2,43.5,41.0,31.8,26.0,64,50,35,30.32,30.20,15,6,23,0.00
2013-11-25,63.4,52.9,44.1,62.0,43.9,32.0,95,72,59,30.29,29.92,16,5,23,0.35
2013-11-26,69.2,58.3,46.5,69.0,57.4,46.0,99,97,95,29.92,29.65,32,5,36,2.12
2013-11-27,50.1,42.4,32.6,46.0,34.6,26.0,97,75,51,30.34,29.84,13,3,19,0.02
2013-11-28,53.0,38.9,28.2,33.0,26.6,22.0,86,65,31,30.45,30.33,6,2,13,0.00
2013-11-29,62.3,45.3,31.8,36.0,31.4,29.0,89,63,30,30.51,30.39,10,2,13,0.00
2013-11-30,67.6,51.7,35.2,49.0,40.6,32.0,90,68,41,30.43,30.25,5,2,10,0.00
2013-12-1,67.0,55.0,47.9,54.0,48.9,44.0,94,81,56,30.26,30.00,6,1,10,0.00
2013-12-2,67.5,57.8,50.9,58.0,52.8,48.0,98,84,65,30.01,29.80,6,1,8,0.00
2013-12-3,76.6,67.1,54.6,68.0,64.0,54.0,99,90,73,29.86,29.79,5,1,8,0.00
2013-12-4,74.2,69.6,66.2,72.0,68.5,66.0,99,96,86,29.98,29.86,6,2,13,2.12
2013-12-5,73.8,71.4,69.6,72.0,70.7,69.0,100,98,94,30.07,29.97,8,4,17,0.00
2013-12-6,76.1,72.6,69.5,73.0,71.5,69.0,99,96,90,30.09,29.98,10,4,17,0.00
2013-12-7,71.4,53.1,48.7,71.0,50.8,47.0,99,92,81,30.24,30.08,11,4,16,0.00
2013-12-8,72.7,61.8,49.4,70.0,61.5,49.0,100,99,91,30.19,30.05,8,2,11,0.00
2013-12-9,72.7,69.1,64.5,71.0,68.6,64.0,100,98,90,30.09,30.03,8,1,9,0.80
2013-12-10,67.9,51.7,41.2,68.0,48.7,37.0,100,90,70,30.32,30.01,13,3,17,0.08
2013-12-11,60.4,48.9,36.7,49.0,41.7,34.0,91,77,58,30.35,30.26,7,2,15,0.00
2013-12-12,60.0,50.2,40.2,44.0,33.2,26.0,76,54,32,30.45,30.33,11,3,16,0.00
2013-12-13,59.6,47.3,-90.0,50.0,36.0,-97.0,82,65,52,30.34,30.03,9,3,15,0.00
2013-12-14,71.9,65.9,55.3,69.0,62.8,49.0,97,90,68,30.02,29.83,11,3,16,0.02
2013-12-15,58.2,45.8,33.2,57.0,41.2,32.0,96,84,66,30.26,29.90,11,2,17,0.02
2013-12-16,61.1,44.1,32.3,44.0,37.1,31.0,97,79,41,30.31,30.22,8,1,10,0.00
2013-12-17,66.6,49.2,36.4,45.0,40.0,35.0,96,74,35,30.32,30.20,4,1,6,0.00
2013-12-18,68.2,52.0,41.9,44.0,38.7,31.0,90,64,28,30.35,30.25,12,2,16,0.00
2013-12-19,64.2,57.0,45.5,59.0,50.6,37.0,91,79,68,30.27,30.12,10,4,16,0.00
2013-12-20,69.4,63.9,57.2,66.0,62.1,56.0,99,94,84,30.14,30.02,9,3,14,0.00
2013-12-21,73.2,69.2,64.9,71.0,68.3,64.0,99,97,91,30.01,29.89,13,5,17,0.05
2013-12-22,73.7,68.5,55.0,72.0,67.6,55.0,98,97,87,30.06,29.90,14,5,21,0.16
2013-12-23,56.9,51.0,40.5,56.0,49.1,36.0,99,93,84,30.33,30.04,10,3,17,0.54
2013-12-24,55.6,42.0,33.9,35.0,31.7,29.0,90,70,40,30.44,30.31,12,3,19,0.17
2013-12-25,54.2,42.2,31.2,38.0,31.1,26.0,82,66,41,30.37,30.25,10,2,12,0.08
2013-12-26,59.8,49.6,40.9,46.0,40.9,37.0,89,73,59,30.30,30.21,11,3,15,0.03
2013-12-27,61.4,53.1,45.1,45.0,39.4,35.0,76,61,45,30.34,30.23,13,4,19,0.02
2013-12-28,62.9,53.1,48.1,63.0,51.4,43.0,99,94,65,30.25,29.84,9,4,20,0.03
2013-12-29,58.5,50.2,42.4,53.0,48.5,42.0,99,94,81,30.10,29.88,6,1,13,0.02
2013-12-30,58.2,49.3,39.2,53.0,47.6,39.0,100,94,80,30.24,30.10,2,0,6,0.02
2013-12-31,52.2,47.8,45.5,50.0,44.4,42.0,94,88,81,30.39,30.25,8,2,13,0.02
2014-1-1,61.2,52.5,45.6,57.0,50.2,43.0,98,92,83,30.32,30.04,7,2,11,0.02
2014-1-2,59.4,51.8,36.5,59.0,48.2,29.0,99,88,70,30.23,29.89,8,2,17,0.02